Terminal Aerodrome Forecast
Issued by NWS

Home | Current Version | Previous Version | Text Only | Print | Product List | Glossary On
Versions: 1 2 3 4 5 6 7 8 9 10 11 12 13 14 15
000
FTUS45 KSLC 192345 AAA
TAFEVW
TAF AMD
KEVW 192345Z 2000/2024 24016KT P6SM VCSH BKN030 OVC050
     FM200100 26013G20KT 2SM -SN BR BKN010 OVC025
     FM200200 31009KT 1/2SM SN FZFG VV004
     FM201000 01006KT 2SM -SN BR BKN008 OVC020
     FM201900 03007KT 4SM -SHSN BKN015 OVC030=

USA.gov is the U.S. government's official web portal to all federal, state and local government web resources and services.